sensor_id;sensor_type;location;lat;lon;timestamp;pressure;altitude;pressure_sealevel;temperature;humidity
33845;BME280;20145;43.118;25.694;2022-09-09T00:01:38;99465.63;;;21.89;55.23
33845;BME280;20145;43.118;25.694;2022-09-09T00:04:31;99467.34;;;21.90;53.87
33845;BME280;20145;43.118;25.694;2022-09-09T00:07:04;99466.75;;;21.85;54.97
33845;BME280;20145;43.118;25.694;2022-09-09T00:15:22;99463.66;;;21.78;56.34
33845;BME280;20145;43.118;25.694;2022-09-09T00:20:53;99478.06;;;21.71;56.50
33845;BME280;20145;43.118;25.694;2022-09-09T00:23:28;99478.22;;;21.52;56.66
33845;BME280;20145;43.118;25.694;2022-09-09T00:26:16;99475.25;;;21.58;57.90
33845;BME280;20145;43.118;25.694;2022-09-09T00:31:30;99475.56;;;21.36;58.82
33845;BME280;20145;43.118;25.694;2022-09-09T00:34:12;99469.59;;;21.50;58.45
33845;BME280;20145;43.118;25.694;2022-09-09T00:36:39;99465.22;;;21.51;58.89
33845;BME280;20145;43.118;25.694;2022-09-09T00:39:09;99461.72;;;21.50;59.15
33845;BME280;20145;43.118;25.694;2022-09-09T00:42:36;99467.81;;;21.35;58.03
33845;BME280;20145;43.118;25.694;2022-09-09T00:47:39;99465.50;;;21.13;59.75
33845;BME280;20145;43.118;25.694;2022-09-09T00:58:07;99466.31;;;20.98;62.24
33845;BME280;20145;43.118;25.694;2022-09-09T01:06:31;99460.06;;;21.00;61.18
33845;BME280;20145;43.118;25.694;2022-09-09T01:09:21;99453.56;;;20.91;61.13
33845;BME280;20145;43.118;25.694;2022-09-09T01:17:24;99450.44;;;20.85;62.11
33845;BME280;20145;43.118;25.694;2022-09-09T01:25:25;99448.63;;;20.52;63.11
33845;BME280;20145;43.118;25.694;2022-09-09T01:27:56;99447.09;;;20.31;63.78
33845;BME280;20145;43.118;25.694;2022-09-09T01:30:25;99442.41;;;20.37;65.09
33845;BME280;20145;43.118;25.694;2022-09-09T01:32:55;99449.34;;;20.38;63.93
33845;BME280;20145;43.118;25.694;2022-09-09T01:37:55;99452.06;;;20.54;64.17
33845;BME280;20145;43.118;25.694;2022-09-09T01:40:22;99448.94;;;20.46;63.96
33845;BME280;20145;43.118;25.694;2022-09-09T01:42:48;99448.41;;;20.39;63.81
33845;BME280;20145;43.118;25.694;2022-09-09T01:45:14;99442.47;;;20.36;64.85
33845;BME280;20145;43.118;25.694;2022-09-09T01:47:39;99433.16;;;20.30;65.49
33845;BME280;20145;43.118;25.694;2022-09-09T01:50:07;99438.91;;;20.37;63.74
33845;BME280;20145;43.118;25.694;2022-09-09T01:52:34;99447.81;;;20.34;63.72
33845;BME280;20145;43.118;25.694;2022-09-09T01:55:01;99454.06;;;20.32;64.79
33845;BME280;20145;43.118;25.694;2022-09-09T01:57:49;99454.22;;;20.28;64.84
33845;BME280;20145;43.118;25.694;2022-09-09T02:00:18;99454.44;;;20.24;65.03
33845;BME280;20145;43.118;25.694;2022-09-09T02:03:12;99462.38;;;20.22;65.24
33845;BME280;20145;43.118;25.694;2022-09-09T02:06:34;99465.94;;;20.21;65.48
33845;BME280;20145;43.118;25.694;2022-09-09T02:08:41;99461.16;;;20.12;65.30
33845;BME280;20145;43.118;25.694;2022-09-09T02:11:14;99453.84;;;20.19;65.74
33845;BME280;20145;43.118;25.694;2022-09-09T02:13:43;99452.72;;;20.23;66.11
33845;BME280;20145;43.118;25.694;2022-09-09T02:18:51;99460.16;;;20.15;66.42
33845;BME280;20145;43.118;25.694;2022-09-09T02:21:18;99449.75;;;20.13;67.42
33845;BME280;20145;43.118;25.694;2022-09-09T02:23:46;99449.06;;;20.10;66.20
33845;BME280;20145;43.118;25.694;2022-09-09T02:26:14;99443.13;;;19.89;67.19
33845;BME280;20145;43.118;25.694;2022-09-09T02:28:47;99442.59;;;19.99;66.71
33845;BME280;20145;43.118;25.694;2022-09-09T02:31:17;99434.59;;;19.85;66.11
33845;BME280;20145;43.118;25.694;2022-09-09T02:33:48;99438.41;;;19.78;67.25
33845;BME280;20145;43.118;25.694;2022-09-09T02:36:17;99441.69;;;19.64;66.51
33845;BME280;20145;43.118;25.694;2022-09-09T02:38:46;99439.25;;;19.78;68.15
33845;BME280;20145;43.118;25.694;2022-09-09T02:41:25;99441.59;;;19.85;67.14
33845;BME280;20145;43.118;25.694;2022-09-09T02:43:52;99441.88;;;19.78;67.01
33845;BME280;20145;43.118;25.694;2022-09-09T02:52:08;99429.25;;;19.87;67.82
33845;BME280;20145;43.118;25.694;2022-09-09T02:54:40;99431.28;;;19.81;67.98
33845;BME280;20145;43.118;25.694;2022-09-09T02:57:11;99430.13;;;19.87;67.89
33845;BME280;20145;43.118;25.694;2022-09-09T02:59:37;99428.66;;;19.81;67.88
33845;BME280;20145;43.118;25.694;2022-09-09T03:02:03;99433.44;;;19.73;67.43
33845;BME280;20145;43.118;25.694;2022-09-09T03:04:29;99431.09;;;19.67;68.42
33845;BME280;20145;43.118;25.694;2022-09-09T03:06:57;99430.56;;;19.59;68.83
33845;BME280;20145;43.118;25.694;2022-09-09T03:09:23;99433.81;;;19.64;69.03
33845;BME280;20145;43.118;25.694;2022-09-09T03:11:49;99428.06;;;19.57;68.21
33845;BME280;20145;43.118;25.694;2022-09-09T03:14:15;99429.97;;;19.54;67.85
33845;BME280;20145;43.118;25.694;2022-09-09T03:16:41;99432.81;;;19.49;69.64
33845;BME280;20145;43.118;25.694;2022-09-09T03:19:08;99416.69;;;19.39;67.67
33845;BME280;20145;43.118;25.694;2022-09-09T03:21:34;99414.00;;;19.41;69.63
33845;BME280;20145;43.118;25.694;2022-09-09T03:24:01;99407.22;;;19.37;70.07
33845;BME280;20145;43.118;25.694;2022-09-09T03:26:29;99417.09;;;19.49;69.90
33845;BME280;20145;43.118;25.694;2022-09-09T03:28:56;99419.50;;;19.54;67.85
33845;BME280;20145;43.118;25.694;2022-09-09T03:31:21;99423.78;;;19.37;67.76
33845;BME280;20145;43.118;25.694;2022-09-09T03:33:47;99422.91;;;19.37;69.90
33845;BME280;20145;43.118;25.694;2022-09-09T03:36:13;99421.88;;;19.41;70.04
33845;BME280;20145;43.118;25.694;2022-09-09T03:38:39;99422.06;;;19.36;69.79
33845;BME280;20145;43.118;25.694;2022-09-09T03:41:05;99417.00;;;19.33;68.06
33845;BME280;20145;43.118;25.694;2022-09-09T03:43:31;99432.03;;;19.47;69.63
33845;BME280;20145;43.118;25.694;2022-09-09T03:45:56;99427.63;;;19.48;70.40
33845;BME280;20145;43.118;25.694;2022-09-09T03:48:22;99428.88;;;19.41;70.35
33845;BME280;20145;43.118;25.694;2022-09-09T03:50:52;99428.16;;;19.37;70.14
33845;BME280;20145;43.118;25.694;2022-09-09T03:53:21;99429.03;;;19.37;69.38
33845;BME280;20145;43.118;25.694;2022-09-09T03:55:48;99431.63;;;19.37;68.61
33845;BME280;20145;43.118;25.694;2022-09-09T03:58:16;99434.31;;;19.36;69.00
33845;BME280;20145;43.118;25.694;2022-09-09T04:00:43;99423.53;;;19.06;68.89
33845;BME280;20145;43.118;25.694;2022-09-09T04:03:17;99428.09;;;19.20;71.14
33845;BME280;20145;43.118;25.694;2022-09-09T04:05:43;99437.44;;;19.25;69.49
33845;BME280;20145;43.118;25.694;2022-09-09T04:08:09;99427.69;;;19.29;69.27
33845;BME280;20145;43.118;25.694;2022-09-09T04:10:35;99434.53;;;19.31;70.40
33845;BME280;20145;43.118;25.694;2022-09-09T04:13:04;99434.63;;;19.30;70.01
33845;BME280;20145;43.118;25.694;2022-09-09T04:15:30;99432.28;;;19.24;69.99
33845;BME280;20145;43.118;25.694;2022-09-09T04:17:57;99444.00;;;19.34;69.41
33845;BME280;20145;43.118;25.694;2022-09-09T04:20:23;99446.19;;;19.43;69.76
33845;BME280;20145;43.118;25.694;2022-09-09T04:22:49;99443.91;;;19.54;68.69
33845;BME280;20145;43.118;25.694;2022-09-09T04:25:15;99443.81;;;19.75;68.61
33845;BME280;20145;43.118;25.694;2022-09-09T04:27:40;99438.56;;;19.92;68.74
33845;BME280;20145;43.118;25.694;2022-09-09T04:30:07;99429.72;;;20.12;67.77
33845;BME280;20145;43.118;25.694;2022-09-09T04:32:33;99436.66;;;20.13;66.63
33845;BME280;20145;43.118;25.694;2022-09-09T04:34:59;99433.56;;;20.22;67.68
33845;BME280;20145;43.118;25.694;2022-09-09T04:37:24;99432.31;;;20.30;67.24
33845;BME280;20145;43.118;25.694;2022-09-09T04:39:50;99445.16;;;20.52;66.58
33845;BME280;20145;43.118;25.694;2022-09-09T04:42:16;99446.75;;;20.71;66.42
33845;BME280;20145;43.118;25.694;2022-09-09T04:44:43;99443.63;;;20.81;65.21
33845;BME280;20145;43.118;25.694;2022-09-09T04:47:09;99456.19;;;21.07;65.38
33845;BME280;20145;43.118;25.694;2022-09-09T04:49:35;99448.81;;;21.14;65.17
33845;BME280;20145;43.118;25.694;2022-09-09T04:52:02;99453.00;;;21.34;64.13
33845;BME280;20145;43.118;25.694;2022-09-09T04:54:29;99454.59;;;21.52;62.42
33845;BME280;20145;43.118;25.694;2022-09-09T04:56:54;99460.59;;;21.70;61.65
33845;BME280;20145;43.118;25.694;2022-09-09T04:59:21;99456.25;;;21.85;61.93
33845;BME280;20145;43.118;25.694;2022-09-09T05:01:48;99459.94;;;21.97;61.65
33845;BME280;20145;43.118;25.694;2022-09-09T05:04:14;99469.38;;;22.15;61.00
33845;BME280;20145;43.118;25.694;2022-09-09T05:06:41;99465.31;;;22.25;60.60
33845;BME280;20145;43.118;25.694;2022-09-09T05:09:08;99464.25;;;22.28;59.84
33845;BME280;20145;43.118;25.694;2022-09-09T05:11:34;99470.41;;;22.43;59.38
33845;BME280;20145;43.118;25.694;2022-09-09T05:14:02;99468.44;;;22.61;59.25
33845;BME280;20145;43.118;25.694;2022-09-09T05:16:28;99469.31;;;22.76;59.20
33845;BME280;20145;43.118;25.694;2022-09-09T05:18:54;99464.56;;;22.81;59.93
33845;BME280;20145;43.118;25.694;2022-09-09T05:21:21;99460.25;;;22.80;58.33
33845;BME280;20145;43.118;25.694;2022-09-09T05:23:48;99457.47;;;22.97;58.74
33845;BME280;20145;43.118;25.694;2022-09-09T05:26:16;99456.59;;;23.11;58.33
33845;BME280;20145;43.118;25.694;2022-09-09T05:28:42;99455.28;;;23.18;59.14
33845;BME280;20145;43.118;25.694;2022-09-09T05:31:09;99457.09;;;23.30;58.96
33845;BME280;20145;43.118;25.694;2022-09-09T05:33:38;99456.53;;;23.40;57.27
33845;BME280;20145;43.118;25.694;2022-09-09T05:36:13;99450.97;;;23.44;56.74
33845;BME280;20145;43.118;25.694;2022-09-09T05:38:39;99459.75;;;23.57;56.36
33845;BME280;20145;43.118;25.694;2022-09-09T05:41:07;99455.88;;;23.63;54.94
33845;BME280;20145;43.118;25.694;2022-09-09T05:43:33;99460.41;;;23.75;54.74
33845;BME280;20145;43.118;25.694;2022-09-09T05:46:09;99444.31;;;23.93;55.44
33845;BME280;20145;43.118;25.694;2022-09-09T05:48:37;99439.25;;;24.02;54.46
33845;BME280;20145;43.118;25.694;2022-09-09T05:51:05;99438.66;;;24.12;54.89
33845;BME280;20145;43.118;25.694;2022-09-09T05:53:32;99435.69;;;24.29;53.13
33845;BME280;20145;43.118;25.694;2022-09-09T05:58:34;99443.13;;;24.62;53.54
33845;BME280;20145;43.118;25.694;2022-09-09T06:01:01;99451.97;;;24.74;51.73
33845;BME280;20145;43.118;25.694;2022-09-09T06:03:27;99448.78;;;24.82;51.95
33845;BME280;20145;43.118;25.694;2022-09-09T06:06:00;99439.91;;;24.83;51.00
33845;BME280;20145;43.118;25.694;2022-09-09T06:08:26;99435.91;;;24.90;52.53
33845;BME280;20145;43.118;25.694;2022-09-09T06:10:52;99433.66;;;24.97;50.65
33845;BME280;20145;43.118;25.694;2022-09-09T06:13:18;99432.06;;;24.94;50.82
33845;BME280;20145;43.118;25.694;2022-09-09T06:15:52;99440.94;;;25.06;50.67
33845;BME280;20145;43.118;25.694;2022-09-09T06:18:19;99435.75;;;25.17;50.10
33845;BME280;20145;43.118;25.694;2022-09-09T06:21:05;99419.69;;;25.20;49.72
33845;BME280;20145;43.118;25.694;2022-09-09T06:23:32;99429.53;;;25.42;50.01
33845;BME280;20145;43.118;25.694;2022-09-09T06:26:10;99426.53;;;25.47;49.71
33845;BME280;20145;43.118;25.694;2022-09-09T06:28:36;99423.09;;;25.57;49.40
33845;BME280;20145;43.118;25.694;2022-09-09T06:31:07;99419.44;;;25.71;48.39
33845;BME280;20145;43.118;25.694;2022-09-09T06:33:41;99419.47;;;25.82;49.07
33845;BME280;20145;43.118;25.694;2022-09-09T06:36:11;99426.34;;;25.85;48.18
33845;BME280;20145;43.118;25.694;2022-09-09T06:38:37;99427.38;;;25.95;47.25
33845;BME280;20145;43.118;25.694;2022-09-09T06:41:04;99428.19;;;25.96;47.95
33845;BME280;20145;43.118;25.694;2022-09-09T06:43:31;99433.50;;;26.07;46.55
33845;BME280;20145;43.118;25.694;2022-09-09T06:45:59;99421.63;;;26.13;45.66
33845;BME280;20145;43.118;25.694;2022-09-09T06:48:26;99422.38;;;26.26;46.91
33845;BME280;20145;43.118;25.694;2022-09-09T06:51:04;99427.44;;;26.40;45.89
33845;BME280;20145;43.118;25.694;2022-09-09T06:53:31;99421.34;;;26.51;45.46
33845;BME280;20145;43.118;25.694;2022-09-09T06:56:00;99429.19;;;26.64;45.01
33845;BME280;20145;43.118;25.694;2022-09-09T06:58:28;99421.72;;;26.69;44.22
33845;BME280;20145;43.118;25.694;2022-09-09T07:01:03;99421.47;;;26.83;44.25
33845;BME280;20145;43.118;25.694;2022-09-09T07:03:28;99419.91;;;26.92;45.42
33845;BME280;20145;43.118;25.694;2022-09-09T07:05:55;99422.41;;;27.05;43.58
33845;BME280;20145;43.118;25.694;2022-09-09T07:08:24;99429.41;;;27.17;43.37
33845;BME280;20145;43.118;25.694;2022-09-09T07:10:51;99422.41;;;27.27;42.57
33845;BME280;20145;43.118;25.694;2022-09-09T07:13:26;99419.44;;;27.42;45.02
33845;BME280;20145;43.118;25.694;2022-09-09T07:15:52;99416.50;;;27.56;43.12
33845;BME280;20145;43.118;25.694;2022-09-09T07:18:19;99415.25;;;27.71;42.73
33845;BME280;20145;43.118;25.694;2022-09-09T07:20:55;99420.66;;;27.81;41.24
33845;BME280;20145;43.118;25.694;2022-09-09T07:23:22;99412.88;;;27.89;41.76
33845;BME280;20145;43.118;25.694;2022-09-09T07:25:48;99412.81;;;28.00;41.49
33845;BME280;20145;43.118;25.694;2022-09-09T07:28:15;99410.25;;;28.10;41.30
33845;BME280;20145;43.118;25.694;2022-09-09T07:30:41;99417.25;;;28.21;41.26
33845;BME280;20145;43.118;25.694;2022-09-09T07:33:08;99398.88;;;28.29;41.49
33845;BME280;20145;43.118;25.694;2022-09-09T07:35:35;99413.63;;;28.43;41.56
33845;BME280;20145;43.118;25.694;2022-09-09T07:38:02;99414.53;;;28.53;39.75
33845;BME280;20145;43.118;25.694;2022-09-09T07:40:35;99411.34;;;28.59;41.19
33845;BME280;20145;43.118;25.694;2022-09-09T07:43:01;99416.25;;;28.64;39.15
33845;BME280;20145;43.118;25.694;2022-09-09T07:45:27;99403.53;;;28.67;39.43
33845;BME280;20145;43.118;25.694;2022-09-09T07:47:58;99423.31;;;28.84;39.13
33845;BME280;20145;43.118;25.694;2022-09-09T07:50:23;99416.34;;;28.93;39.35
33845;BME280;20145;43.118;25.694;2022-09-09T07:52:52;99411.94;;;29.03;39.88
33845;BME280;20145;43.118;25.694;2022-09-09T07:55:22;99408.72;;;29.09;38.51
33845;BME280;20145;43.118;25.694;2022-09-09T07:57:53;99415.47;;;29.23;37.94
33845;BME280;20145;43.118;25.694;2022-09-09T08:00:21;99419.81;;;29.34;38.36
33845;BME280;20145;43.118;25.694;2022-09-09T08:02:47;99408.34;;;29.33;37.76
33845;BME280;20145;43.118;25.694;2022-09-09T08:05:13;99414.94;;;29.39;38.03
33845;BME280;20145;43.118;25.694;2022-09-09T08:07:40;99420.66;;;29.54;38.51
33845;BME280;20145;43.118;25.694;2022-09-09T08:10:06;99407.78;;;29.59;38.20
33845;BME280;20145;43.118;25.694;2022-09-09T08:12:32;99420.44;;;29.76;38.02
33845;BME280;20145;43.118;25.694;2022-09-09T08:14:58;99417.50;;;29.79;36.89
33845;BME280;20145;43.118;25.694;2022-09-09T08:17:26;99421.53;;;29.84;38.17
33845;BME280;20145;43.118;25.694;2022-09-09T08:19:54;99417.47;;;29.89;36.72
33845;BME280;20145;43.118;25.694;2022-09-09T08:22:20;99414.81;;;29.89;37.31
33845;BME280;20145;43.118;25.694;2022-09-09T08:24:47;99400.38;;;30.01;36.77
33845;BME280;20145;43.118;25.694;2022-09-09T08:27:12;99409.31;;;30.00;36.69
33845;BME280;20145;43.118;25.694;2022-09-09T08:29:41;99408.91;;;29.95;36.27
33845;BME280;20145;43.118;25.694;2022-09-09T08:32:06;99390.00;;;29.98;36.33
33845;BME280;20145;43.118;25.694;2022-09-09T08:34:33;99394.66;;;29.96;36.15
33845;BME280;20145;43.118;25.694;2022-09-09T08:36:59;99391.53;;;30.01;36.59
33845;BME280;20145;43.118;25.694;2022-09-09T08:39:24;99386.63;;;30.06;36.49
33845;BME280;20145;43.118;25.694;2022-09-09T08:47:30;99376.44;;;30.49;36.52
33845;BME280;20145;43.118;25.694;2022-09-09T08:50:32;99377.94;;;30.51;35.92
33845;BME280;20145;43.118;25.694;2022-09-09T08:55:53;99374.13;;;30.63;35.79
33845;BME280;20145;43.118;25.694;2022-09-09T08:58:29;99378.63;;;30.63;35.93
33845;BME280;20145;43.118;25.694;2022-09-09T09:11:53;99381.53;;;30.97;35.96
33845;BME280;20145;43.118;25.694;2022-09-09T09:14:28;99373.53;;;30.97;35.23
33845;BME280;20145;43.118;25.694;2022-09-09T09:19:24;99362.88;;;30.97;34.79
33845;BME280;20145;43.118;25.694;2022-09-09T09:27:15;99375.09;;;30.90;34.86
33845;BME280;20145;43.118;25.694;2022-09-09T09:29:42;99370.69;;;30.81;34.24
33845;BME280;20145;43.118;25.694;2022-09-09T09:32:14;99363.09;;;30.86;34.82
33845;BME280;20145;43.118;25.694;2022-09-09T09:34:41;99371.63;;;30.89;35.13
33845;BME280;20145;43.118;25.694;2022-09-09T09:37:20;99374.84;;;30.93;35.18
33845;BME280;20145;43.118;25.694;2022-09-09T09:39:52;99360.91;;;30.99;34.64
33845;BME280;20145;43.118;25.694;2022-09-09T09:42:18;99360.69;;;31.10;35.63
33845;BME280;20145;43.118;25.694;2022-09-09T09:44:44;99356.13;;;31.21;35.06
33845;BME280;20145;43.118;25.694;2022-09-09T09:47:18;99335.25;;;31.16;34.30
33845;BME280;20145;43.118;25.694;2022-09-09T09:49:58;99338.06;;;31.15;34.60
33845;BME280;20145;43.118;25.694;2022-09-09T09:52:29;99349.41;;;31.34;35.38
33845;BME280;20145;43.118;25.694;2022-09-09T09:54:57;99347.38;;;31.46;34.38
33845;BME280;20145;43.118;25.694;2022-09-09T09:57:29;99346.00;;;31.42;34.86
33845;BME280;20145;43.118;25.694;2022-09-09T10:00:14;99347.75;;;31.51;35.24
33845;BME280;20145;43.118;25.694;2022-09-09T10:02:42;99335.47;;;31.59;35.14
33845;BME280;20145;43.118;25.694;2022-09-09T10:07:46;99342.31;;;31.61;34.15
33845;BME280;20145;43.118;25.694;2022-09-09T10:10:26;99334.09;;;31.54;34.77
33845;BME280;20145;43.118;25.694;2022-09-09T10:13:13;99328.59;;;31.56;34.99
33845;BME280;20145;43.118;25.694;2022-09-09T10:21:31;99337.28;;;31.58;34.99
33845;BME280;20145;43.118;25.694;2022-09-09T10:40:33;99338.81;;;31.61;34.97
33845;BME280;20145;43.118;25.694;2022-09-09T10:45:55;99337.78;;;31.80;34.81
33845;BME280;20145;43.118;25.694;2022-09-09T10:51:22;99333.75;;;31.93;33.66
33845;BME280;20145;43.118;25.694;2022-09-09T10:54:20;99331.22;;;31.92;33.93
33845;BME280;20145;43.118;25.694;2022-09-09T10:56:51;99329.59;;;31.99;34.87
33845;BME280;20145;43.118;25.694;2022-09-09T10:59:24;99325.56;;;31.95;33.40
33845;BME280;20145;43.118;25.694;2022-09-09T11:01:59;99322.06;;;31.94;34.72
33845;BME280;20145;43.118;25.694;2022-09-09T11:04:48;99318.56;;;31.94;34.90
33845;BME280;20145;43.118;25.694;2022-09-09T11:08:00;99309.91;;;32.00;33.61
33845;BME280;20145;43.118;25.694;2022-09-09T11:13:22;99310.41;;;31.95;33.13
33845;BME280;20145;43.118;25.694;2022-09-09T11:16:31;99311.56;;;31.93;34.66
33845;BME280;20145;43.118;25.694;2022-09-09T11:24:51;99295.78;;;32.08;34.20
33845;BME280;20145;43.118;25.694;2022-09-09T11:30:21;99300.47;;;32.14;32.81
33845;BME280;20145;43.118;25.694;2022-09-09T11:38:25;99298.31;;;32.17;34.55
33845;BME280;20145;43.118;25.694;2022-09-09T11:41:05;99292.00;;;32.18;34.37
33845;BME280;20145;43.118;25.694;2022-09-09T11:43:44;99288.81;;;32.23;34.07
33845;BME280;20145;43.118;25.694;2022-09-09T11:46:11;99276.69;;;32.37;34.46
33845;BME280;20145;43.118;25.694;2022-09-09T11:48:58;99288.94;;;32.48;34.55
33845;BME280;20145;43.118;25.694;2022-09-09T11:53:54;99278.47;;;32.54;33.89
33845;BME280;20145;43.118;25.694;2022-09-09T11:58:58;99283.38;;;32.33;33.95
33845;BME280;20145;43.118;25.694;2022-09-09T12:01:45;99276.66;;;32.20;34.24
33845;BME280;20145;43.118;25.694;2022-09-09T12:04:13;99270.59;;;32.10;34.66
33845;BME280;20145;43.118;25.694;2022-09-09T12:06:59;99270.81;;;31.91;34.96
33845;BME280;20145;43.118;25.694;2022-09-09T12:09:54;99263.38;;;31.76;34.52
33845;BME280;20145;43.118;25.694;2022-09-09T12:12:24;99265.38;;;31.74;35.66
33845;BME280;20145;43.118;25.694;2022-09-09T12:17:24;99256.16;;;31.69;35.45
33845;BME280;20145;43.118;25.694;2022-09-09T12:22:55;99251.59;;;31.61;35.35
33845;BME280;20145;43.118;25.694;2022-09-09T12:28:38;99247.38;;;31.50;35.35
33845;BME280;20145;43.118;25.694;2022-09-09T12:31:12;99249.75;;;31.36;35.74
33845;BME280;20145;43.118;25.694;2022-09-09T12:33:43;99234.00;;;31.24;36.35
33845;BME280;20145;43.118;25.694;2022-09-09T12:36:16;99223.28;;;31.16;36.38
33845;BME280;20145;43.118;25.694;2022-09-09T12:38:45;99229.13;;;31.20;36.48
33845;BME280;20145;43.118;25.694;2022-09-09T12:41:24;99233.47;;;31.21;36.87
33845;BME280;20145;43.118;25.694;2022-09-09T12:43:50;99221.06;;;31.11;37.39
33845;BME280;20145;43.118;25.694;2022-09-09T12:46:24;99223.28;;;31.16;36.94
33845;BME280;20145;43.118;25.694;2022-09-09T12:48:53;99221.97;;;31.20;36.67
33845;BME280;20145;43.118;25.694;2022-09-09T12:51:30;99220.22;;;31.29;36.16
33845;BME280;20145;43.118;25.694;2022-09-09T12:53:58;99222.78;;;31.39;35.42
33845;BME280;20145;43.118;25.694;2022-09-09T12:56:27;99212.69;;;31.50;34.89
33845;BME280;20145;43.118;25.694;2022-09-09T12:58:56;99212.69;;;31.50;36.34
33845;BME280;20145;43.118;25.694;2022-09-09T13:01:31;99217.50;;;31.47;35.83
33845;BME280;20145;43.118;25.694;2022-09-09T13:03:57;99211.19;;;31.48;35.26
33845;BME280;20145;43.118;25.694;2022-09-09T13:06:25;99214.25;;;31.61;35.74
33845;BME280;20145;43.118;25.694;2022-09-09T13:08:53;99212.78;;;31.67;35.40
33845;BME280;20145;43.118;25.694;2022-09-09T13:11:23;99215.69;;;31.73;35.84
33845;BME280;20145;43.118;25.694;2022-09-09T13:13:56;99214.66;;;31.74;35.73
33845;BME280;20145;43.118;25.694;2022-09-09T13:16:26;99205.00;;;31.73;36.17
33845;BME280;20145;43.118;25.694;2022-09-09T13:18:58;99219.81;;;31.68;36.30
33845;BME280;20145;43.118;25.694;2022-09-09T13:21:34;99214.94;;;31.63;36.56
33845;BME280;20145;43.118;25.694;2022-09-09T13:24:00;99213.53;;;31.51;36.77
33845;BME280;20145;43.118;25.694;2022-09-09T13:26:29;99213.00;;;31.47;37.26
33845;BME280;20145;43.118;25.694;2022-09-09T13:29:08;99220.31;;;31.45;37.32
33845;BME280;20145;43.118;25.694;2022-09-09T13:31:43;99216.81;;;31.45;37.44
33845;BME280;20145;43.118;25.694;2022-09-09T13:34:13;99218.59;;;31.36;37.75
33845;BME280;20145;43.118;25.694;2022-09-09T13:36:40;99216.69;;;31.28;38.08
33845;BME280;20145;43.118;25.694;2022-09-09T13:39:15;99213.97;;;31.20;37.90
33845;BME280;20145;43.118;25.694;2022-09-09T13:41:44;99212.59;;;31.16;37.47
33845;BME280;20145;43.118;25.694;2022-09-09T13:44:26;99217.09;;;31.16;37.43
33845;BME280;20145;43.118;25.694;2022-09-09T13:47:16;99215.41;;;31.15;37.68
33845;BME280;20145;43.118;25.694;2022-09-09T13:49:44;99221.88;;;31.30;37.59
33845;BME280;20145;43.118;25.694;2022-09-09T13:52:13;99222.56;;;31.32;37.54
33845;BME280;20145;43.118;25.694;2022-09-09T13:54:39;99209.06;;;31.33;38.08
33845;BME280;20145;43.118;25.694;2022-09-09T13:57:05;99211.50;;;31.45;38.14
33845;BME280;20145;43.118;25.694;2022-09-09T13:59:39;99204.19;;;31.47;38.02
33845;BME280;20145;43.118;25.694;2022-09-09T14:02:04;99198.84;;;31.47;38.22
33845;BME280;20145;43.118;25.694;2022-09-09T14:04:30;99200.91;;;31.35;37.79
33845;BME280;20145;43.118;25.694;2022-09-09T14:06:56;99194.63;;;31.18;38.10
33845;BME280;20145;43.118;25.694;2022-09-09T14:09:21;99189.91;;;31.12;38.39
33845;BME280;20145;43.118;25.694;2022-09-09T14:11:47;99189.50;;;31.25;38.57
33845;BME280;20145;43.118;25.694;2022-09-09T14:14:13;99193.69;;;31.27;38.46
33845;BME280;20145;43.118;25.694;2022-09-09T14:16:38;99195.59;;;31.35;38.06
33845;BME280;20145;43.118;25.694;2022-09-09T14:19:04;99179.66;;;31.25;38.35
33845;BME280;20145;43.118;25.694;2022-09-09T14:21:29;99185.06;;;31.33;38.60
33845;BME280;20145;43.118;25.694;2022-09-09T14:23:55;99190.38;;;31.33;38.44
33845;BME280;20145;43.118;25.694;2022-09-09T14:26:23;99195.97;;;31.40;38.42
33845;BME280;20145;43.118;25.694;2022-09-09T14:28:49;99194.16;;;31.41;38.48
33845;BME280;20145;43.118;25.694;2022-09-09T14:31:15;99192.16;;;31.25;38.45
33845;BME280;20145;43.118;25.694;2022-09-09T14:33:43;99181.66;;;31.23;39.09
33845;BME280;20145;43.118;25.694;2022-09-09T14:36:09;99188.75;;;31.15;39.46
33845;BME280;20145;43.118;25.694;2022-09-09T14:38:37;99188.44;;;30.92;39.70
33845;BME280;20145;43.118;25.694;2022-09-09T14:41:09;99174.84;;;30.67;40.12
33845;BME280;20145;43.118;25.694;2022-09-09T14:43:37;99172.75;;;30.53;39.91
33845;BME280;20145;43.118;25.694;2022-09-09T14:46:10;99183.47;;;30.61;40.33
33845;BME280;20145;43.118;25.694;2022-09-09T14:48:36;99181.47;;;30.45;40.89
33845;BME280;20145;43.118;25.694;2022-09-09T14:51:12;99193.75;;;30.38;41.10
33845;BME280;20145;43.118;25.694;2022-09-09T14:53:39;99203.75;;;30.26;41.44
33845;BME280;20145;43.118;25.694;2022-09-09T14:56:09;99209.41;;;30.13;41.51
33845;BME280;20145;43.118;25.694;2022-09-09T14:58:35;99217.13;;;30.07;41.49
33845;BME280;20145;43.118;25.694;2022-09-09T15:01:05;99220.25;;;30.02;41.87
33845;BME280;20145;43.118;25.694;2022-09-09T15:03:31;99227.66;;;29.98;41.50
33845;BME280;20145;43.118;25.694;2022-09-09T15:05:57;99219.59;;;29.90;41.55
33845;BME280;20145;43.118;25.694;2022-09-09T15:08:25;99234.19;;;29.86;42.14
33845;BME280;20145;43.118;25.694;2022-09-09T15:10:59;99232.09;;;29.80;41.95
33845;BME280;20145;43.118;25.694;2022-09-09T15:13:25;99232.28;;;29.69;42.99
33845;BME280;20145;43.118;25.694;2022-09-09T15:16:16;99233.28;;;29.58;43.81
33845;BME280;20145;43.118;25.694;2022-09-09T15:18:43;99227.97;;;29.48;43.32
33845;BME280;20145;43.118;25.694;2022-09-09T15:21:11;99230.50;;;29.50;42.99
33845;BME280;20145;43.118;25.694;2022-09-09T15:23:37;99223.50;;;29.39;43.64
33845;BME280;20145;43.118;25.694;2022-09-09T15:26:04;99233.03;;;29.42;43.30
33845;BME280;20145;43.118;25.694;2022-09-09T15:28:31;99232.19;;;29.41;42.98